Yellowstone Regional Airport Cody US
ICAO: KCOD
IATA: COD
Category: Medium
Scheduled Services: No

Elevation: 5102 ft
TransAlt. 18000 ft.

Airport Communications:
AWOS 3:135.075
SALT LAKE CITY CNTR:133.25
CASPER RDO:122.3
CTAF/UNICOM:122.8

KCOD Zoom In..

If you have problems with the map follow the link
https://www.worldairports.se/pages/airport.php?
ICAO=KCOD

Runways:

(A) RW 04 length 8268 ft width 100 ft
---- / hdg 38

(B) RW 22 length 8268 ft width 100 ft
---- / hdg 218

Location; KCOD
Day. 18 / Time. 10.56 Zulu
* Altimeter: 30.19
* Temperature: -04° c. -24.8°f.
* Wind from: 290° Speed 09 kn.
Dewpoint: -15° c.
Visibility: 10 Statute Miles.
Clouds: Clear (automated report).

KCOD 181056Z AUTO 29009KT 10SM CLR M04/M15 A3019 RMK AO2 SLP273 T10441150 FZRANO


Wind From 290°
Speed 09 kn.

 
 
jpsmedia worldairports.se 2020   terms of use